sensor_id;sensor_type;location;lat;lon;timestamp;P1;durP1;ratioP1;P2;durP2;ratioP2
45734;SDS011;31446;49.632;8.328;2023-09-19T00:08:21;2.97;;;1.10;;
45734;SDS011;31446;49.632;8.328;2023-09-19T00:23:28;4.13;;;1.23;;
45734;SDS011;31446;49.632;8.328;2023-09-19T00:38:36;4.60;;;1.58;;
45734;SDS011;31446;49.632;8.328;2023-09-19T00:53:42;7.10;;;1.38;;
45734;SDS011;31446;49.632;8.328;2023-09-19T01:08:53;4.90;;;1.30;;
45734;SDS011;31446;49.632;8.328;2023-09-19T01:24:10;4.07;;;1.20;;
45734;SDS011;31446;49.632;8.328;2023-09-19T01:39:49;2.38;;;0.98;;
45734;SDS011;31446;49.632;8.328;2023-09-19T01:54:59;2.22;;;1.42;;
45734;SDS011;31446;49.632;8.328;2023-09-19T02:10:11;3.20;;;1.60;;
45734;SDS011;31446;49.632;8.328;2023-09-19T02:25:18;5.22;;;1.63;;
45734;SDS011;31446;49.632;8.328;2023-09-19T02:40:24;6.55;;;1.63;;
45734;SDS011;31446;49.632;8.328;2023-09-19T02:55:31;2.67;;;1.60;;
45734;SDS011;31446;49.632;8.328;2023-09-19T03:10:37;4.25;;;1.52;;
45734;SDS011;31446;49.632;8.328;2023-09-19T03:25:44;7.10;;;2.30;;
45734;SDS011;31446;49.632;8.328;2023-09-19T03:40:51;10.57;;;3.58;;
45734;SDS011;31446;49.632;8.328;2023-09-19T03:55:57;5.40;;;3.25;;
45734;SDS011;31446;49.632;8.328;2023-09-19T04:11:04;8.85;;;3.35;;
45734;SDS011;31446;49.632;8.328;2023-09-19T04:26:10;9.13;;;3.85;;
45734;SDS011;31446;49.632;8.328;2023-09-19T04:41:19;5.40;;;3.47;;
45734;SDS011;31446;49.632;8.328;2023-09-19T04:56:26;7.85;;;3.50;;
45734;SDS011;31446;49.632;8.328;2023-09-19T05:11:35;6.53;;;3.08;;
45734;SDS011;31446;49.632;8.328;2023-09-19T05:26:42;13.85;;;2.97;;
45734;SDS011;31446;49.632;8.328;2023-09-19T05:41:48;6.95;;;2.30;;
45734;SDS011;31446;49.632;8.328;2023-09-19T05:56:56;7.60;;;2.38;;
45734;SDS011;31446;49.632;8.328;2023-09-19T06:12:03;7.10;;;2.10;;
45734;SDS011;31446;49.632;8.328;2023-09-19T06:27:10;5.75;;;1.58;;
45734;SDS011;31446;49.632;8.328;2023-09-19T06:42:17;6.47;;;1.75;;
45734;SDS011;31446;49.632;8.328;2023-09-19T06:57:29;6.45;;;1.95;;
45734;SDS011;31446;49.632;8.328;2023-09-19T07:12:38;5.97;;;1.83;;
45734;SDS011;31446;49.632;8.328;2023-09-19T07:27:51;15.83;;;1.80;;
45734;SDS011;31446;49.632;8.328;2023-09-19T07:42:58;5.07;;;1.55;;
45734;SDS011;31446;49.632;8.328;2023-09-19T07:58:05;7.30;;;1.67;;
45734;SDS011;31446;49.632;8.328;2023-09-19T08:13:12;5.05;;;1.70;;
45734;SDS011;31446;49.632;8.328;2023-09-19T08:28:20;10.35;;;1.80;;
45734;SDS011;31446;49.632;8.328;2023-09-19T08:43:27;7.57;;;2.10;;
45734;SDS011;31446;49.632;8.328;2023-09-19T08:58:44;7.45;;;1.80;;
45734;SDS011;31446;49.632;8.328;2023-09-19T09:13:53;16.52;;;2.28;;
45734;SDS011;31446;49.632;8.328;2023-09-19T09:29:00;9.07;;;1.83;;
45734;SDS011;31446;49.632;8.328;2023-09-19T09:44:14;12.15;;;2.17;;
45734;SDS011;31446;49.632;8.328;2023-09-19T09:59:22;11.38;;;2.10;;
45734;SDS011;31446;49.632;8.328;2023-09-19T10:14:32;11.05;;;2.25;;
45734;SDS011;31446;49.632;8.328;2023-09-19T10:29:44;7.28;;;1.77;;
45734;SDS011;31446;49.632;8.328;2023-09-19T10:44:54;7.63;;;1.48;;
45734;SDS011;31446;49.632;8.328;2023-09-19T11:00:03;15.27;;;3.25;;
45734;SDS011;31446;49.632;8.328;2023-09-19T11:31:40;10.18;;;1.70;;
45734;SDS011;31446;49.632;8.328;2023-09-19T11:46:54;5.32;;;1.88;;
45734;SDS011;31446;49.632;8.328;2023-09-19T12:02:03;4.65;;;1.45;;
45734;SDS011;31446;49.632;8.328;2023-09-19T12:17:11;2.67;;;1.40;;
45734;SDS011;31446;49.632;8.328;2023-09-19T12:32:17;3.80;;;1.27;;
45734;SDS011;31446;49.632;8.328;2023-09-19T12:47:24;6.65;;;1.55;;
45734;SDS011;31446;49.632;8.328;2023-09-19T13:02:32;3.90;;;0.90;;
45734;SDS011;31446;49.632;8.328;2023-09-19T13:17:45;4.30;;;1.30;;
45734;SDS011;31446;49.632;8.328;2023-09-19T13:32:53;2.58;;;1.17;;
45734;SDS011;31446;49.632;8.328;2023-09-19T13:48:10;2.95;;;0.98;;
45734;SDS011;31446;49.632;8.328;2023-09-19T14:03:16;5.32;;;1.00;;
45734;SDS011;31446;49.632;8.328;2023-09-19T14:18:23;7.95;;;1.00;;
45734;SDS011;31446;49.632;8.328;2023-09-19T14:33:29;3.65;;;0.98;;
45734;SDS011;31446;49.632;8.328;2023-09-19T14:48:35;3.35;;;1.13;;
45734;SDS011;31446;49.632;8.328;2023-09-19T15:03:42;2.30;;;0.95;;
45734;SDS011;31446;49.632;8.328;2023-09-19T15:18:49;2.47;;;1.00;;
45734;SDS011;31446;49.632;8.328;2023-09-19T15:33:55;5.32;;;0.90;;
45734;SDS011;31446;49.632;8.328;2023-09-19T15:49:01;1.88;;;0.88;;
45734;SDS011;31446;49.632;8.328;2023-09-19T16:04:10;1.38;;;0.75;;
45734;SDS011;31446;49.632;8.328;2023-09-19T16:19:17;3.08;;;0.82;;
45734;SDS011;31446;49.632;8.328;2023-09-19T16:34:23;2.10;;;0.50;;
45734;SDS011;31446;49.632;8.328;2023-09-19T16:49:30;4.25;;;1.10;;
45734;SDS011;31446;49.632;8.328;2023-09-19T17:04:36;2.22;;;0.60;;
45734;SDS011;31446;49.632;8.328;2023-09-19T17:19:42;2.38;;;0.88;;
45734;SDS011;31446;49.632;8.328;2023-09-19T17:34:48;4.28;;;0.85;;
45734;SDS011;31446;49.632;8.328;2023-09-19T17:49:55;2.15;;;1.08;;
45734;SDS011;31446;49.632;8.328;2023-09-19T18:05:01;5.68;;;0.90;;
45734;SDS011;31446;49.632;8.328;2023-09-19T18:20:08;1.95;;;0.93;;
45734;SDS011;31446;49.632;8.328;2023-09-19T18:35:17;2.33;;;0.90;;
45734;SDS011;31446;49.632;8.328;2023-09-19T18:50:24;3.53;;;0.73;;
45734;SDS011;31446;49.632;8.328;2023-09-19T19:05:30;4.35;;;0.95;;
45734;SDS011;31446;49.632;8.328;2023-09-19T19:20:37;2.45;;;0.90;;
45734;SDS011;31446;49.632;8.328;2023-09-19T19:35:44;1.30;;;0.80;;
45734;SDS011;31446;49.632;8.328;2023-09-19T19:50:50;4.05;;;1.27;;
45734;SDS011;31446;49.632;8.328;2023-09-19T20:05:57;5.00;;;1.40;;
45734;SDS011;31446;49.632;8.328;2023-09-19T20:21:08;2.33;;;0.82;;
45734;SDS011;31446;49.632;8.328;2023-09-19T20:36:16;2.42;;;0.63;;
45734;SDS011;31446;49.632;8.328;2023-09-19T20:51:22;2.22;;;0.70;;
45734;SDS011;31446;49.632;8.328;2023-09-19T21:06:29;2.45;;;0.80;;
45734;SDS011;31446;49.632;8.328;2023-09-19T21:21:37;1.10;;;1.00;;
45734;SDS011;31446;49.632;8.328;2023-09-19T21:36:43;1.33;;;0.75;;
45734;SDS011;31446;49.632;8.328;2023-09-19T21:51:49;2.88;;;0.88;;
45734;SDS011;31446;49.632;8.328;2023-09-19T22:06:56;0.98;;;0.73;;
45734;SDS011;31446;49.632;8.328;2023-09-19T22:22:02;4.85;;;0.90;;
45734;SDS011;31446;49.632;8.328;2023-09-19T22:37:11;3.33;;;0.88;;
45734;SDS011;31446;49.632;8.328;2023-09-19T22:52:17;2.75;;;0.60;;
45734;SDS011;31446;49.632;8.328;2023-09-19T23:07:24;1.20;;;0.60;;
45734;SDS011;31446;49.632;8.328;2023-09-19T23:22:31;5.05;;;1.08;;
45734;SDS011;31446;49.632;8.328;2023-09-19T23:37:38;3.35;;;1.20;;
45734;SDS011;31446;49.632;8.328;2023-09-19T23:52:47;4.97;;;0.90;;
